Time;durP1;ratioP1;P1;durP2;ratioP2;P2;SDS_P1;SDS_P2;PMS_P1;PMS_P2;Temp;Humidity;BMP_temperature;BMP_pressure;BME280_temperature;BME280_humidity;BME280_pressure;Samples;Min_cycle;Max_cycle;Signal;HPM_P1;HPM_P2
2023/07/27 00:00:27;;;;;;;12.55;8.07;;;12.90;99.90;;;;;;7377374;19;20413;-66
2023/07/27 00:02:53;;;;;;;10.98;7.82;;;12.90;99.90;;;;;;7373681;19;20022;-66
2023/07/27 00:05:19;;;;;;;11.45;8.43;;;12.90;99.90;;;;;;7370627;19;20050;-66
2023/07/27 00:07:45;;;;;;;11.38;8.18;;;12.90;99.90;;;;;;7375936;19;20018;-66
2023/07/27 00:10:12;;;;;;;11.10;7.75;;;12.90;99.90;;;;;;7366402;19;20441;-66
2023/07/27 00:12:39;;;;;;;11.63;8.30;;;12.90;99.90;;;;;;7374485;19;20023;-57
2023/07/27 00:15:05;;;;;;;10.57;7.22;;;12.90;99.90;;;;;;7371375;19;20011;-58
2023/07/27 00:17:32;;;;;;;10.98;7.90;;;13.00;99.90;;;;;;7372007;19;20488;-57
2023/07/27 00:19:58;;;;;;;11.23;8.27;;;13.00;99.90;;;;;;7372466;19;20118;-58
2023/07/27 00:22:24;;;;;;;10.73;7.93;;;13.10;99.90;;;;;;7370130;19;20025;-57
2023/07/27 00:24:50;;;;;;;14.18;7.63;;;13.10;99.90;;;;;;7373802;19;20018;-57
2023/07/27 00:27:16;;;;;;;9.55;7.40;;;13.20;99.90;;;;;;7366607;19;20043;-57
2023/07/27 00:29:45;;;;;;;9.30;7.38;;;13.10;99.90;;;;;;7375740;19;20019;-65
2023/07/27 00:32:11;;;;;;;11.15;7.60;;;13.20;99.90;;;;;;7369396;19;20029;-66
2023/07/27 00:34:37;;;;;;;10.75;7.22;;;13.20;99.90;;;;;;7369426;19;20351;-65
2023/07/27 00:37:05;;;;;;;12.02;8.32;;;13.20;99.90;;;;;;7366609;19;20018;-57
2023/07/27 00:39:31;;;;;;;10.18;7.85;;;13.30;99.90;;;;;;7374114;19;20033;-57
2023/07/27 00:41:57;;;;;;;11.18;8.68;;;13.30;99.90;;;;;;7376337;19;20014;-57
2023/07/27 00:44:24;;;;;;;10.63;7.47;;;13.30;99.90;;;;;;7370590;19;20014;-58
2023/07/27 00:46:51;;;;;;;10.30;7.88;;;13.30;99.90;;;;;;7371005;19;20029;-57
2023/07/27 00:49:19;;;;;;;11.15;7.72;;;13.40;99.90;;;;;;7373384;19;20074;-57
2023/07/27 00:51:46;;;;;;;10.27;7.18;;;13.40;99.90;;;;;;7375433;19;20022;-57
2023/07/27 00:54:13;;;;;;;9.63;8.63;;;13.40;99.90;;;;;;7368422;19;20419;-56
2023/07/27 00:56:41;;;;;;;9.57;7.88;;;13.50;99.90;;;;;;7373269;19;20590;-66
2023/07/27 00:59:07;;;;;;;10.38;7.55;;;13.50;99.90;;;;;;7372542;19;20041;-65
2023/07/27 01:01:34;;;;;;;9.93;7.53;;;13.50;99.90;;;;;;7368563;19;20438;-66
2023/07/27 01:04:00;;;;;;;11.00;7.72;;;13.50;99.90;;;;;;7366475;19;20023;-66
2023/07/27 01:06:27;;;;;;;9.23;7.13;;;13.60;99.90;;;;;;7367991;19;20018;-66
2023/07/27 01:08:54;;;;;;;11.85;7.75;;;13.60;99.90;;;;;;7373064;19;20022;-66
2023/07/27 01:11:48;;;;;;;10.05;7.63;;;13.60;99.90;;;;;;7366282;19;20090;-57
2023/07/27 01:14:33;;;;;;;10.98;8.10;;;13.70;99.90;;;;;;7367808;19;21309;-58
2023/07/27 01:17:29;;;;;;;12.15;7.80;;;13.70;99.90;;;;;;7363424;19;20018;-60
2023/07/27 01:20:09;;;;;;;12.57;8.45;;;13.70;99.90;;;;;;7364483;19;20578;-66
2023/07/27 01:22:53;;;;;;;12.50;7.47;;;13.70;99.90;;;;;;7367851;19;20014;-57
2023/07/27 01:25:45;;;;;;;11.88;8.55;;;13.70;99.90;;;;;;7368566;19;20498;-57
2023/07/27 01:28:49;;;;;;;11.13;8.02;;;13.70;99.90;;;;;;7360978;19;20513;-66
2023/07/27 01:31:23;;;;;;;10.40;8.30;;;13.80;99.90;;;;;;7362158;19;20458;-66
2023/07/27 01:33:57;;;;;;;11.80;7.80;;;13.70;99.90;;;;;;7367299;19;20055;-66
2023/07/27 01:36:26;;;;;;;12.73;9.38;;;13.70;99.90;;;;;;7365564;19;20019;-57
2023/07/27 01:38:58;;;;;;;11.40;8.75;;;13.80;99.90;;;;;;7370292;19;20130;-59
2023/07/27 01:41:26;;;;;;;12.60;9.00;;;13.80;99.90;;;;;;7363406;19;20018;-57
2023/07/27 01:43:53;;;;;;;11.13;8.18;;;13.80;99.90;;;;;;7365074;19;20045;-66
2023/07/27 01:46:21;;;;;;;11.27;7.82;;;13.80;99.90;;;;;;7363889;19;20024;-58
2023/07/27 01:48:50;;;;;;;10.88;7.68;;;13.80;99.90;;;;;;7369080;19;20368;-57
2023/07/27 01:51:17;;;;;;;14.10;8.80;;;13.70;99.90;;;;;;7365318;19;20702;-57
2023/07/27 01:53:45;;;;;;;12.13;8.60;;;13.80;99.90;;;;;;7369527;19;20092;-57
2023/07/27 01:56:12;;;;;;;10.10;7.00;;;13.70;99.90;;;;;;7363856;19;20019;-57
2023/07/27 01:58:39;;;;;;;10.88;7.80;;;13.70;99.90;;;;;;7371184;19;20078;-58
2023/07/27 02:01:06;;;;;;;9.15;6.93;;;13.70;99.90;;;;;;7366264;19;20031;-57
2023/07/27 02:03:33;;;;;;;11.30;8.15;;;13.70;99.90;;;;;;7369411;19;20014;-57
2023/07/27 02:06:01;;;;;;;10.63;8.10;;;13.70;99.90;;;;;;7366270;19;20018;-57
2023/07/27 02:08:28;;;;;;;11.63;7.55;;;13.70;99.90;;;;;;7362915;19;20314;-58
2023/07/27 02:11:04;;;;;;;10.95;7.50;;;13.70;99.90;;;;;;7368735;19;20098;-57
2023/07/27 02:14:03;;;;;;;10.57;7.70;;;13.70;99.90;;;;;;7370417;19;20073;-57
2023/07/27 02:16:45;;;;;;;11.88;8.52;;;13.70;99.90;;;;;;7367292;19;20048;-66
2023/07/27 02:19:16;;;;;;;11.65;7.30;;;13.70;99.90;;;;;;7368167;19;20396;-57
2023/07/27 02:21:45;;;;;;;10.23;7.43;;;13.70;99.90;;;;;;7373200;19;20014;-58
2023/07/27 02:24:11;;;;;;;10.55;7.85;;;13.70;99.90;;;;;;7373785;19;20282;-57
2023/07/27 02:26:38;;;;;;;11.45;8.23;;;13.70;99.90;;;;;;7370148;19;20019;-58
2023/07/27 02:29:04;;;;;;;11.48;8.35;;;13.70;99.90;;;;;;7372048;19;20018;-65
2023/07/27 02:31:30;;;;;;;10.73;7.63;;;13.70;99.90;;;;;;7374678;19;20015;-66
2023/07/27 02:33:57;;;;;;;9.90;7.93;;;13.60;99.90;;;;;;7373062;19;20022;-66
2023/07/27 02:36:24;;;;;;;9.88;8.30;;;13.60;99.90;;;;;;7362109;19;20426;-67
2023/07/27 02:38:50;;;;;;;10.38;7.47;;;13.60;99.90;;;;;;7377589;19;20533;-66
2023/07/27 02:41:17;;;;;;;12.00;7.53;;;13.60;99.90;;;;;;7374327;19;20103;-66
2023/07/27 02:43:43;;;;;;;10.35;7.57;;;13.60;99.90;;;;;;7368376;19;20022;-66
2023/07/27 02:46:10;;;;;;;12.35;8.05;;;13.70;99.90;;;;;;7371240;19;20688;-66
2023/07/27 02:48:36;;;;;;;10.88;7.90;;;13.70;99.90;;;;;;7372367;19;20518;-66
2023/07/27 02:51:03;;;;;;;10.93;8.07;;;13.70;99.90;;;;;;7371856;19;20552;-66
2023/07/27 02:53:30;;;;;;;13.43;8.35;;;13.60;99.90;;;;;;7371356;19;20034;-66
2023/07/27 02:56:01;;;;;;;10.13;8.05;;;13.70;99.90;;;;;;7367551;19;20417;-66
2023/07/27 02:58:32;;;;;;;11.02;8.43;;;13.60;99.90;;;;;;7373775;19;20018;-65
2023/07/27 03:01:01;;;;;;;11.65;8.50;;;13.60;99.90;;;;;;7368249;19;20018;-67
2023/07/27 03:03:28;;;;;;;13.23;8.63;;;13.60;99.90;;;;;;7373428;19;20588;-67
2023/07/27 03:06:05;;;;;;;12.30;8.48;;;13.60;99.90;;;;;;7368782;19;20022;-66
2023/07/27 03:08:32;;;;;;;12.73;8.85;;;13.60;99.90;;;;;;7373810;19;20110;-66
2023/07/27 03:11:03;;;;;;;13.20;9.07;;;13.60;99.90;;;;;;7375648;19;20492;-65
2023/07/27 03:13:31;;;;;;;12.48;9.90;;;13.60;99.90;;;;;;7374989;19;20547;-57
2023/07/27 03:15:59;;;;;;;11.65;9.15;;;13.60;99.90;;;;;;7369682;19;20026;-58
2023/07/27 03:18:27;;;;;;;11.90;8.93;;;13.70;99.90;;;;;;7372435;19;20057;-57
2023/07/27 03:20:53;;;;;;;13.93;9.88;;;13.70;99.90;;;;;;7373624;19;20056;-57
2023/07/27 03:23:20;;;;;;;11.13;9.30;;;13.70;99.90;;;;;;7367982;19;20401;-57
2023/07/27 03:25:46;;;;;;;13.40;10.38;;;13.70;99.90;;;;;;7370231;19;20049;-57
2023/07/27 03:28:13;;;;;;;15.02;10.63;;;13.70;99.90;;;;;;7371067;19;20014;-57
2023/07/27 03:30:39;;;;;;;12.45;9.95;;;13.70;99.90;;;;;;7369160;19;20371;-57
2023/07/27 03:33:06;;;;;;;13.95;9.95;;;13.70;99.90;;;;;;7372244;19;20027;-57
2023/07/27 03:35:34;;;;;;;11.32;10.13;;;13.70;99.90;;;;;;7367855;19;20023;-57
2023/07/27 03:38:00;;;;;;;14.13;10.32;;;13.70;99.90;;;;;;7371111;19;20022;-57
2023/07/27 03:40:27;;;;;;;14.57;10.43;;;13.70;99.90;;;;;;7369035;19;20010;-57
2023/07/27 03:42:53;;;;;;;12.10;10.13;;;13.60;99.90;;;;;;7371491;19;20049;-57
2023/07/27 03:45:19;;;;;;;14.15;10.80;;;13.60;99.90;;;;;;7369042;19;20920;-57
2023/07/27 03:47:46;;;;;;;13.13;10.30;;;13.60;99.90;;;;;;7371476;19;20018;-57
2023/07/27 03:50:13;;;;;;;14.98;11.43;;;13.60;99.90;;;;;;7368932;19;20022;-57
2023/07/27 03:52:40;;;;;;;15.60;10.80;;;13.60;99.90;;;;;;7372971;19;20080;-57
2023/07/27 03:55:12;;;;;;;14.27;11.27;;;13.60;99.90;;;;;;7371237;19;20484;-57
2023/07/27 03:57:38;;;;;;;15.55;12.25;;;13.60;99.90;;;;;;7369940;19;20477;-57
2023/07/27 04:00:05;;;;;;;14.68;11.20;;;13.60;99.90;;;;;;7370242;19;20757;-58
2023/07/27 04:02:40;;;;;;;13.88;11.02;;;13.50;99.90;;;;;;7373886;19;20026;-65
2023/07/27 04:05:07;;;;;;;19.63;11.32;;;13.50;99.90;;;;;;7373472;19;20085;-57
2023/07/27 04:07:33;;;;;;;17.25;12.25;;;13.50;99.90;;;;;;7371983;19;20451;-66
2023/07/27 04:09:59;;;;;;;16.20;12.48;;;13.50;99.90;;;;;;7371501;19;20022;-66
2023/07/27 04:12:26;;;;;;;17.50;13.02;;;13.50;99.90;;;;;;7362587;19;20090;-57
2023/07/27 04:14:53;;;;;;;19.77;12.23;;;13.50;99.90;;;;;;7367269;19;20581;-58
2023/07/27 04:17:19;;;;;;;16.70;12.38;;;13.50;99.90;;;;;;7369414;19;20022;-58
2023/07/27 04:19:45;;;;;;;14.20;10.75;;;13.50;99.90;;;;;;7369587;19;20644;-58
2023/07/27 04:22:12;;;;;;;18.83;12.65;;;13.50;99.90;;;;;;7367883;19;20019;-58
2023/07/27 04:24:40;;;;;;;19.60;13.63;;;13.40;99.90;;;;;;7369211;19;20021;-58
2023/07/27 04:27:06;;;;;;;19.45;13.32;;;13.40;99.90;;;;;;7364157;19;20362;-58
2023/07/27 04:29:33;;;;;;;18.08;13.60;;;13.40;99.90;;;;;;7368983;19;20509;-57
2023/07/27 04:32:02;;;;;;;20.27;13.95;;;13.50;99.90;;;;;;7366384;19;20037;-57
2023/07/27 04:34:28;;;;;;;17.38;13.23;;;13.50;99.90;;;;;;7367696;19;20697;-58
2023/07/27 04:36:55;;;;;;;18.75;13.27;;;13.50;99.90;;;;;;7364095;19;20375;-57
2023/07/27 04:39:21;;;;;;;20.10;13.95;;;13.40;99.90;;;;;;7367549;19;20101;-57
2023/07/27 04:41:47;;;;;;;18.17;13.40;;;13.50;99.90;;;;;;7370446;19;20354;-66
2023/07/27 04:44:14;;;;;;;17.77;13.90;;;13.50;99.90;;;;;;7366415;19;20444;-57
2023/07/27 04:46:40;;;;;;;16.35;13.80;;;13.50;99.90;;;;;;7369340;19;20049;-58
2023/07/27 04:49:06;;;;;;;19.85;13.73;;;13.50;99.90;;;;;;7371320;19;20049;-58
2023/07/27 04:51:33;;;;;;;19.42;13.07;;;13.50;99.90;;;;;;7369393;19;20015;-58
2023/07/27 04:54:01;;;;;;;17.98;12.88;;;13.50;99.90;;;;;;7371176;19;20036;-57
2023/07/27 04:56:27;;;;;;;19.20;13.32;;;13.60;99.90;;;;;;7364152;19;20037;-57
2023/07/27 04:58:54;;;;;;;17.02;13.43;;;13.60;99.90;;;;;;7367677;19;20082;-57
2023/07/27 05:01:20;;;;;;;22.10;13.45;;;13.60;99.90;;;;;;7367467;19;20015;-58
2023/07/27 05:03:47;;;;;;;18.45;12.95;;;13.60;99.90;;;;;;7369906;19;20035;-57
2023/07/27 05:06:13;;;;;;;17.30;13.13;;;13.60;99.90;;;;;;7367723;19;20579;-57
2023/07/27 05:08:39;;;;;;;16.35;12.68;;;13.60;99.90;;;;;;7371602;19;20019;-66
2023/07/27 05:11:08;;;;;;;16.23;11.65;;;13.60;99.90;;;;;;7370180;19;20504;-66
2023/07/27 05:13:35;;;;;;;17.88;12.63;;;13.70;99.90;;;;;;7368374;19;20022;-66
2023/07/27 05:16:02;;;;;;;16.33;12.70;;;13.70;99.90;;;;;;7364361;19;20018;-66
2023/07/27 05:18:29;;;;;;;17.30;11.70;;;13.70;99.90;;;;;;7361349;19;20025;-66
2023/07/27 05:20:56;;;;;;;15.68;10.93;;;13.80;99.90;;;;;;7369532;19;20026;-57
2023/07/27 05:23:22;;;;;;;14.88;11.40;;;13.80;99.90;;;;;;7361964;19;20010;-58
2023/07/27 05:25:48;;;;;;;16.58;11.23;;;13.80;99.90;;;;;;7364909;19;20014;-58
2023/07/27 05:28:15;;;;;;;16.52;10.90;;;13.80;99.90;;;;;;7363932;19;20018;-59
2023/07/27 05:30:42;;;;;;;12.13;10.35;;;13.80;99.90;;;;;;7371920;19;20822;-58
2023/07/27 05:33:08;;;;;;;13.52;10.27;;;13.80;99.90;;;;;;7368661;19;20026;-58
2023/07/27 05:35:34;;;;;;;13.45;9.43;;;13.80;99.90;;;;;;7372422;19;20037;-66
2023/07/27 05:38:04;;;;;;;13.45;9.82;;;13.80;99.90;;;;;;7369168;19;20048;-58
2023/07/27 05:40:30;;;;;;;11.68;9.93;;;13.80;99.90;;;;;;7369333;19;20029;-58
2023/07/27 05:42:56;;;;;;;13.45;9.40;;;13.90;99.90;;;;;;7369267;19;20026;-57
2023/07/27 05:45:22;;;;;;;12.63;9.77;;;13.90;99.90;;;;;;7367686;19;20014;-58
2023/07/27 05:47:49;;;;;;;15.60;10.52;;;13.90;99.90;;;;;;7367857;19;20041;-58
2023/07/27 05:50:16;;;;;;;15.73;11.00;;;13.90;99.90;;;;;;7373764;19;20015;-66
2023/07/27 05:52:42;;;;;;;15.88;10.35;;;14.00;99.90;;;;;;7369184;19;20484;-66
2023/07/27 05:55:08;;;;;;;13.95;10.93;;;14.00;99.90;;;;;;7372416;19;20109;-66
2023/07/27 05:57:35;;;;;;;15.57;11.63;;;14.00;99.90;;;;;;7362830;19;20051;-68
2023/07/27 06:00:01;;;;;;;15.77;11.85;;;14.10;99.90;;;;;;7368700;19;20169;-66
2023/07/27 06:02:28;;;;;;;14.77;11.98;;;14.20;99.90;;;;;;7358857;19;20015;-66
2023/07/27 06:04:54;;;;;;;18.20;13.70;;;14.20;99.90;;;;;;7368543;19;20039;-67
2023/07/27 06:07:25;;;;;;;19.73;13.48;;;14.30;99.90;;;;;;7364225;19;20011;-66
2023/07/27 06:09:52;;;;;;;18.52;14.68;;;14.30;99.90;;;;;;7369781;19;20018;-66
2023/07/27 06:12:18;;;;;;;19.65;13.90;;;14.30;99.90;;;;;;7369089;19;20399;-66
2023/07/27 06:14:45;;;;;;;19.85;16.92;;;14.30;99.90;;;;;;7370208;19;20418;-57
2023/07/27 06:17:12;;;;;;;19.20;15.15;;;14.40;99.90;;;;;;7366288;19;20112;-57
2023/07/27 06:19:39;;;;;;;22.50;15.80;;;14.40;99.90;;;;;;7364840;19;20090;-57
2023/07/27 06:22:06;;;;;;;18.45;14.35;;;14.40;99.90;;;;;;7370760;19;20043;-65
2023/07/27 06:24:32;;;;;;;20.73;15.05;;;14.40;99.90;;;;;;7367948;19;20041;-67
2023/07/27 06:26:58;;;;;;;22.00;16.15;;;14.40;99.90;;;;;;7363255;19;20023;-66
2023/07/27 06:29:27;;;;;;;19.85;15.05;;;14.50;99.90;;;;;;7365911;19;20019;-66
2023/07/27 06:31:54;;;;;;;23.13;16.33;;;14.50;99.90;;;;;;7360817;19;20111;-66
2023/07/27 06:34:20;;;;;;;19.58;15.60;;;14.60;99.90;;;;;;7360956;19;20086;-57
2023/07/27 06:36:46;;;;;;;18.80;15.77;;;14.70;99.90;;;;;;7367919;19;20033;-57
2023/07/27 06:39:12;;;;;;;22.10;15.50;;;14.70;99.90;;;;;;7366008;19;20022;-67
2023/07/27 06:41:39;;;;;;;20.58;15.35;;;14.70;99.90;;;;;;7367692;19;20026;-67
2023/07/27 06:44:07;;;;;;;26.50;21.25;;;14.70;99.90;;;;;;7366595;19;20102;-66
2023/07/27 06:46:34;;;;;;;17.77;15.88;;;14.70;99.90;;;;;;7361415;19;20390;-66
2023/07/27 06:49:00;;;;;;;18.42;14.63;;;14.70;99.90;;;;;;7362391;19;20019;-67
2023/07/27 06:51:27;;;;;;;20.05;15.70;;;14.80;99.90;;;;;;7364662;19;20105;-66
2023/07/27 06:53:53;;;;;;;20.10;16.05;;;14.80;99.90;;;;;;7367118;19;20109;-67
2023/07/27 06:56:19;;;;;;;19.75;16.02;;;14.80;99.90;;;;;;7366791;19;20019;-57
2023/07/27 06:58:46;;;;;;;23.15;15.80;;;14.80;99.90;;;;;;7370591;19;20515;-57
2023/07/27 07:01:12;;;;;;;21.25;15.80;;;14.80;99.90;;;;;;7370878;19;20489;-57
2023/07/27 07:03:38;;;;;;;19.30;15.50;;;14.80;99.90;;;;;;7373326;19;20029;-57
2023/07/27 07:06:05;;;;;;;20.92;17.08;;;14.80;99.90;;;;;;7368711;19;20026;-57
2023/07/27 07:08:31;;;;;;;21.10;15.98;;;14.90;99.90;;;;;;7368618;19;20134;-57
2023/07/27 07:10:58;;;;;;;20.17;15.85;;;14.90;99.90;;;;;;7368656;19;20022;-67
2023/07/27 07:13:26;;;;;;;19.67;16.30;;;15.00;99.90;;;;;;7367501;19;20018;-67
2023/07/27 07:15:52;;;;;;;16.17;14.38;;;14.90;99.90;;;;;;7372712;19;20037;-67
2023/07/27 07:18:19;;;;;;;18.63;15.65;;;14.90;99.90;;;;;;7371214;19;20016;-67
2023/07/27 07:20:46;;;;;;;19.30;15.27;;;14.90;99.90;;;;;;7372955;19;20048;-66
2023/07/27 07:23:12;;;;;;;18.70;15.85;;;14.90;99.90;;;;;;7373100;19;20494;-66
2023/07/27 07:25:42;;;;;;;18.70;14.20;;;14.90;99.90;;;;;;7375581;19;20018;-67
2023/07/27 07:28:08;;;;;;;17.60;14.02;;;15.00;99.90;;;;;;7375452;19;20021;-57
2023/07/27 07:30:38;;;;;;;17.15;15.25;;;15.00;99.90;;;;;;7373217;19;20510;-66
2023/07/27 07:33:08;;;;;;;16.98;14.27;;;15.00;99.90;;;;;;7374918;19;20019;-65
2023/07/27 07:35:38;;;;;;;16.52;12.68;;;15.00;99.90;;;;;;7368464;19;20133;-66
2023/07/27 07:38:05;;;;;;;18.35;14.52;;;15.00;99.90;;;;;;7373622;19;20055;-66
2023/07/27 07:40:32;;;;;;;18.45;12.90;;;15.00;99.90;;;;;;7368950;19;20022;-66
2023/07/27 07:42:59;;;;;;;14.55;11.95;;;15.00;99.90;;;;;;7375840;19;20119;-66
2023/07/27 07:45:25;;;;;;;13.45;12.05;;;15.00;99.90;;;;;;7375653;19;20022;-66
2023/07/27 07:47:51;;;;;;;14.48;11.68;;;15.00;99.90;;;;;;7374085;19;20081;-67
2023/07/27 07:50:18;;;;;;;15.80;12.93;;;14.90;99.90;;;;;;7372251;19;20110;-66
2023/07/27 07:52:45;;;;;;;14.43;12.57;;;15.00;99.90;;;;;;7376561;19;20022;-65
2023/07/27 07:55:11;;;;;;;15.05;11.95;;;15.00;99.90;;;;;;7373277;19;20362;-65
2023/07/27 07:57:37;;;;;;;13.13;11.70;;;15.00;99.90;;;;;;7376324;19;20025;-65
2023/07/27 08:00:05;;;;;;;15.88;12.52;;;15.00;99.90;;;;;;7373665;19;20023;-66
2023/07/27 08:02:41;;;;;;;15.88;12.45;;;15.00;99.90;;;;;;7371339;19;20026;-66
2023/07/27 08:05:07;;;;;;;17.05;13.25;;;15.00;99.90;;;;;;7370618;19;20022;-66
2023/07/27 08:07:33;;;;;;;15.48;13.30;;;15.10;99.90;;;;;;7370506;19;20026;-67
2023/07/27 08:10:02;;;;;;;16.30;12.73;;;15.00;99.90;;;;;;7370539;19;20058;-67
2023/07/27 08:12:30;;;;;;;13.43;11.98;;;15.10;99.90;;;;;;7375715;19;20044;-67
2023/07/27 08:15:02;;;;;;;13.30;11.95;;;15.10;99.90;;;;;;7372238;19;20848;-67
2023/07/27 08:17:30;;;;;;;12.25;10.88;;;15.10;99.90;;;;;;7372842;19;20033;-67
2023/07/27 08:19:57;;;;;;;14.15;10.82;;;15.10;99.90;;;;;;7370255;19;20370;-71
2023/07/27 08:22:24;;;;;;;14.98;12.80;;;15.10;99.90;;;;;;7375176;19;20565;-72
2023/07/27 08:24:50;;;;;;;24.70;22.13;;;15.20;99.90;;;;;;7378461;19;20015;-68
2023/07/27 08:27:18;;;;;;;12.45;11.15;;;15.20;99.90;;;;;;7374178;19;20496;-67
2023/07/27 08:29:44;;;;;;;12.10;10.88;;;15.20;99.90;;;;;;7373349;19;20074;-68
2023/07/27 08:32:10;;;;;;;13.70;11.82;;;15.30;99.90;;;;;;7375684;19;20015;-65
2023/07/27 08:34:37;;;;;;;12.55;11.35;;;15.30;99.90;;;;;;7374441;19;20109;-66
2023/07/27 08:37:03;;;;;;;14.68;12.55;;;15.30;99.90;;;;;;7377155;19;20026;-59
2023/07/27 08:39:33;;;;;;;13.30;12.10;;;15.30;99.90;;;;;;7373284;19;20015;-56
2023/07/27 08:42:02;;;;;;;13.35;12.10;;;15.40;99.90;;;;;;7368910;19;20014;-56
2023/07/27 08:44:29;;;;;;;13.27;12.02;;;15.40;99.90;;;;;;7375783;19;20015;-56
2023/07/27 08:46:58;;;;;;;12.20;10.98;;;15.40;99.90;;;;;;7375197;19;20018;-65
2023/07/27 08:49:25;;;;;;;13.07;11.88;;;15.40;99.90;;;;;;7372018;19;20014;-56
2023/07/27 08:51:51;;;;;;;13.45;12.23;;;15.50;99.90;;;;;;7369805;19;20018;-56
2023/07/27 08:54:18;;;;;;;12.88;11.68;;;15.40;99.90;;;;;;7370796;19;20018;-56
2023/07/27 08:56:44;;;;;;;14.30;13.10;;;15.40;99.90;;;;;;7364657;19;20015;-56
2023/07/27 08:59:10;;;;;;;15.13;13.73;;;15.50;99.90;;;;;;7369073;19;20027;-58
2023/07/27 09:01:37;;;;;;;15.23;13.90;;;15.50;99.90;;;;;;7371802;19;20015;-58
2023/07/27 09:04:03;;;;;;;13.65;12.55;;;15.60;99.90;;;;;;7377204;19;20033;-55
2023/07/27 09:06:44;;;;;;;13.07;11.98;;;15.60;99.90;;;;;;7369078;19;20023;-56
2023/07/27 09:09:29;;;;;;;13.63;12.38;;;15.60;99.90;;;;;;7371260;19;20018;-57
2023/07/27 09:11:55;;;;;;;13.85;12.65;;;15.70;99.90;;;;;;7367961;19;20010;-57
2023/07/27 09:14:22;;;;;;;15.43;14.13;;;15.70;99.90;;;;;;7369744;19;20053;-57
2023/07/27 09:16:49;;;;;;;39.35;35.58;;;15.70;99.90;;;;;;7369166;19;20178;-58
2023/07/27 09:19:19;;;;;;;22.10;20.10;;;15.90;99.90;;;;;;7368259;19;20019;-57
2023/07/27 09:21:51;;;;;;;106.50;96.18;;;16.00;99.90;;;;;;7366780;19;20443;-60
2023/07/27 09:24:18;;;;;;;19.48;17.80;;;16.10;99.90;;;;;;7369011;19;20014;-57
2023/07/27 09:26:45;;;;;;;28.98;26.23;;;16.30;99.90;;;;;;7369843;19;20021;-58
2023/07/27 09:29:13;;;;;;;12.65;11.55;;;16.40;99.90;;;;;;7367010;19;20023;-57
2023/07/27 09:31:54;;;;;;;12.18;11.18;;;16.40;99.90;;;;;;7368003;19;20021;-57
2023/07/27 09:34:21;;;;;;;20.83;18.95;;;16.50;99.90;;;;;;7365722;19;20018;-57
2023/07/27 09:36:47;;;;;;;132.02;118.60;;;16.60;99.90;;;;;;7367988;19;20025;-57
2023/07/27 09:39:15;;;;;;;16.30;14.85;;;16.70;99.90;;;;;;7365691;19;20039;-58
2023/07/27 09:41:46;;;;;;;35.95;32.30;;;16.70;99.90;;;;;;7367091;19;20022;-58
2023/07/27 09:44:18;;;;;;;26.10;23.55;;;16.80;99.90;;;;;;7364342;19;20018;-57
2023/07/27 09:46:45;;;;;;;25.65;23.10;;;16.80;99.90;;;;;;7370309;19;20444;-64
2023/07/27 09:49:12;;;;;;;13.32;12.07;;;16.80;99.90;;;;;;7375695;19;20018;-64
2023/07/27 09:51:39;;;;;;;16.40;14.75;;;16.90;99.90;;;;;;7370806;19;20093;-65
2023/07/27 09:54:06;;;;;;;8.82;8.02;;;17.00;99.90;;;;;;7375846;19;20037;-64
2023/07/27 09:56:33;;;;;;;22.17;20.13;;;17.00;99.90;;;;;;7367104;19;20022;-58
2023/07/27 09:59:00;;;;;;;11.57;10.52;;;17.10;99.90;;;;;;7372216;19;20469;-57
2023/07/27 10:01:27;;;;;;;8.63;7.82;;;17.00;99.90;;;;;;7372036;19;20018;-64
2023/07/27 10:04:00;;;;;;;10.05;9.15;;;17.00;99.90;;;;;;7371736;19;20019;-58
2023/07/27 10:06:28;;;;;;;7.80;7.13;;;17.10;99.90;;;;;;7369273;19;20029;-58
2023/07/27 10:08:57;;;;;;;167.93;150.73;;;17.20;99.90;;;;;;7366796;19;20033;-58
2023/07/27 10:11:49;;;;;;;42.35;38.15;;;17.20;99.90;;;;;;7369377;19;20056;-64
2023/07/27 10:14:17;;;;;;;41.75;37.65;;;17.20;99.90;;;;;;7370257;19;20476;-58
2023/07/27 10:17:07;;;;;;;8.52;7.72;;;17.40;99.90;;;;;;7369362;19;20014;-64
2023/07/27 10:19:50;;;;;;;16.38;14.80;;;17.40;99.90;;;;;;7372858;19;20013;-64
2023/07/27 10:22:19;;;;;;;7.60;6.88;;;17.50;99.90;;;;;;7365703;19;20023;-58
2023/07/27 10:24:46;;;;;;;18.75;16.75;;;17.60;99.90;;;;;;7366715;19;20033;-58
2023/07/27 10:27:12;;;;;;;11.60;10.43;;;17.60;99.90;;;;;;7366521;19;20019;-62
2023/07/27 10:29:38;;;;;;;12.35;11.10;;;17.60;99.90;;;;;;7357250;19;20010;-57
2023/07/27 10:32:11;;;;;;;6.75;6.07;;;17.60;99.90;;;;;;7362326;19;20018;-57
2023/07/27 10:34:38;;;;;;;24.77;22.35;;;17.60;99.90;;;;;;7361874;19;20026;-58
2023/07/27 10:37:06;;;;;;;6.93;6.25;;;17.70;99.90;;;;;;7377366;19;20078;-58
2023/07/27 10:39:44;;;;;;;8.80;8.00;;;17.70;99.90;;;;;;7373936;19;20023;-57
2023/07/27 10:42:20;;;;;;;5.95;5.35;;;17.80;99.90;;;;;;7375617;19;20026;-64
2023/07/27 10:44:50;;;;;;;5.50;5.00;;;17.70;99.90;;;;;;7380059;19;20051;-64
2023/07/27 10:47:27;;;;;;;5.57;5.00;;;17.70;99.90;;;;;;7379568;19;20022;-64
2023/07/27 10:49:58;;;;;;;6.05;5.45;;;17.70;99.90;;;;;;7382624;19;20102;-64
2023/07/27 10:52:30;;;;;;;7.32;6.68;;;17.70;99.90;;;;;;7375469;19;20021;-58
2023/07/27 10:54:59;;;;;;;7.05;6.43;;;17.70;99.90;;;;;;7372824;19;20957;-58
2023/07/27 10:57:27;;;;;;;7.80;6.70;;;17.70;99.90;;;;;;7372447;19;20025;-57
2023/07/27 10:59:54;;;;;;;7.28;6.68;;;17.90;99.90;;;;;;7370208;19;20021;-64
2023/07/27 11:02:32;;;;;;;7.45;6.75;;;17.90;99.90;;;;;;7372890;19;20014;-63
2023/07/27 11:05:02;;;;;;;9.13;7.07;;;17.90;99.90;;;;;;7364037;19;20022;-58
2023/07/27 11:07:31;;;;;;;8.80;7.95;;;17.90;99.90;;;;;;7370452;19;20022;-58
2023/07/27 11:09:59;;;;;;;8.82;6.78;;;17.90;99.90;;;;;;7373932;19;20510;-58
2023/07/27 11:12:26;;;;;;;16.50;7.78;;;17.90;99.90;;;;;;7378879;19;20708;-64
2023/07/27 11:14:53;;;;;;;20.75;18.58;;;17.90;99.90;;;;;;7377326;19;20597;-67
2023/07/27 11:17:19;;;;;;;12.88;11.68;;;17.90;99.90;;;;;;7375613;19;20019;-64
2023/07/27 11:19:46;;;;;;;26.77;24.30;;;17.90;99.90;;;;;;7383977;19;20462;-64
2023/07/27 11:22:13;;;;;;;11.57;10.50;;;17.90;99.90;;;;;;7385526;19;20014;-64
2023/07/27 11:24:40;;;;;;;10.82;9.82;;;17.90;99.90;;;;;;7378823;19;20446;-60
2023/07/27 11:27:09;;;;;;;9.82;8.95;;;18.00;99.90;;;;;;7374433;19;20023;-65
2023/07/27 11:29:39;;;;;;;10.27;9.35;;;18.10;99.90;;;;;;7374394;19;20020;-67
2023/07/27 11:32:06;;;;;;;150.95;136.05;;;18.10;99.90;;;;;;7376415;19;20018;-57
2023/07/27 11:34:32;;;;;;;61.10;55.22;;;18.20;99.90;;;;;;7366994;19;21201;-58
2023/07/27 11:37:00;;;;;;;37.83;34.17;;;18.30;99.90;;;;;;7373500;19;20014;-58
2023/07/27 11:39:26;;;;;;;20.15;18.17;;;18.30;99.90;;;;;;7372810;19;20528;-58
2023/07/27 11:41:53;;;;;;;18.95;17.13;;;18.40;99.90;;;;;;7372668;19;20018;-58
2023/07/27 11:44:22;;;;;;;17.58;15.98;;;18.60;99.90;;;;;;7372883;19;20014;-64
2023/07/27 11:46:51;;;;;;;7.03;6.43;;;18.70;99.90;;;;;;7371056;19;20036;-64
2023/07/27 11:49:21;;;;;;;13.55;12.23;;;18.80;99.90;;;;;;7372374;19;20025;-65
2023/07/27 11:51:47;;;;;;;5.45;4.95;;;18.80;99.90;;;;;;7374432;19;20145;-64
2023/07/27 11:54:27;;;;;;;5.85;5.35;;;18.80;99.90;;;;;;7374753;19;20019;-64
2023/07/27 11:56:56;;;;;;;5.72;5.20;;;18.60;99.90;;;;;;7366041;19;20018;-64
2023/07/27 11:59:23;;;;;;;5.53;4.90;;;18.60;99.90;;;;;;7372856;19;20038;-65
2023/07/27 12:01:50;;;;;;;7.00;5.38;;;18.70;99.90;;;;;;7371258;19;20650;-65
2023/07/27 12:04:19;;;;;;;5.68;5.18;;;18.80;99.90;;;;;;7373663;19;20029;-65
2023/07/27 12:06:46;;;;;;;4.72;4.22;;;18.80;99.90;;;;;;7367479;19;20074;-65
2023/07/27 12:09:12;;;;;;;5.68;5.13;;;18.90;99.90;;;;;;7370357;19;20015;-65
2023/07/27 12:11:39;;;;;;;6.10;5.50;;;19.00;99.90;;;;;;7376129;19;20460;-64
2023/07/27 12:14:07;;;;;;;5.93;4.97;;;19.10;99.90;;;;;;7381513;19;20553;-66
2023/07/27 12:16:45;;;;;;;5.90;5.30;;;19.20;99.90;;;;;;7371188;19;20605;-63
2023/07/27 12:19:11;;;;;;;11.93;10.75;;;19.30;99.90;;;;;;7371571;19;20477;-67
2023/07/27 12:21:39;;;;;;;9.55;7.32;;;19.40;99.90;;;;;;7371258;19;20014;-68
2023/07/27 12:24:09;;;;;;;12.18;11.02;;;19.30;99.90;;;;;;7367808;19;20047;-64
2023/07/27 12:26:39;;;;;;;13.55;11.73;;;19.30;99.90;;;;;;7366360;19;20374;-67
2023/07/27 12:29:05;;;;;;;10.02;9.13;;;19.20;99.90;;;;;;7371691;19;20059;-63
2023/07/27 12:31:33;;;;;;;10.32;9.38;;;19.20;99.90;;;;;;7369407;19;20018;-64
2023/07/27 12:34:02;;;;;;;10.30;8.85;;;19.10;99.90;;;;;;7368510;19;20019;-63
2023/07/27 12:36:28;;;;;;;6.88;6.22;;;19.00;99.90;;;;;;7370750;19;20015;-63
2023/07/27 12:38:57;;;;;;;6.47;5.88;;;18.90;99.90;;;;;;7377910;19;20111;-64